createdAt,value
2023-03-29T00:00:23.000Z,77.00
2023-03-29T00:01:35.849Z,77.14
2023-03-29T00:02:24.143Z,76.70
2023-03-29T00:03:23.062Z,76.39
2023-03-29T00:04:22.993Z,76.59
2023-03-29T00:05:23.096Z,77.72
2023-03-29T00:06:22.914Z,77.86
2023-03-29T00:07:22.943Z,78.93
2023-03-29T00:08:22.921Z,79.14
2023-03-29T00:09:22.929Z,78.96
2023-03-29T00:10:22.947Z,78.65
2023-03-29T00:11:22.899Z,78.28
2023-03-29T00:12:22.872Z,78.24
2023-03-29T00:13:22.960Z,78.34
2023-03-29T00:14:22.903Z,78.72
2023-03-29T00:15:22.887Z,77.72
2023-03-29T00:16:22.935Z,78.34
2023-03-29T00:17:22.885Z,78.72
2023-03-29T00:18:22.887Z,78.82
2023-03-29T00:19:23.846Z,78.72
2023-03-29T00:20:22.831Z,78.41
2023-03-29T00:21:22.828Z,78.20
2023-03-29T00:22:22.828Z,78.00
2023-03-29T00:23:22.819Z,78.06
2023-03-29T00:24:22.817Z,78.00
2023-03-29T00:25:22.829Z,77.96
2023-03-29T00:26:22.949Z,77.14
2023-03-29T00:27:22.820Z,76.62
2023-03-29T00:28:22.873Z,77.07
2023-03-29T00:29:22.828Z,78.06
2023-03-29T00:30:22.796Z,76.97
2023-03-29T00:31:22.852Z,76.97
2023-03-29T00:32:22.891Z,76.49
2023-03-29T00:33:22.790Z,77.21
2023-03-29T00:34:22.810Z,78.62
2023-03-29T00:35:22.760Z,79.41
2023-03-29T00:36:22.752Z,79.72
2023-03-29T00:37:22.772Z,78.58
2023-03-29T00:38:22.823Z,78.34
2023-03-29T00:39:22.727Z,78.58
2023-03-29T00:40:22.729Z,78.96
2023-03-29T00:41:22.748Z,78.96
2023-03-29T00:42:22.715Z,79.03
2023-03-29T00:43:22.733Z,79.03
2023-03-29T00:44:22.717Z,78.30
2023-03-29T00:45:22.724Z,78.10
2023-03-29T00:46:22.827Z,77.89
2023-03-29T00:47:22.828Z,77.79
2023-03-29T00:48:22.676Z,78.20
2023-03-29T00:49:22.661Z,78.68
2023-03-29T00:50:22.744Z,77.65
2023-03-29T00:51:22.628Z,77.65
2023-03-29T00:52:22.666Z,77.75
2023-03-29T00:53:22.714Z,77.55
2023-03-29T00:54:22.657Z,77.10
2023-03-29T00:55:22.643Z,76.07
2023-03-29T00:56:22.659Z,75.67
2023-03-29T00:57:22.786Z,76.90
2023-03-29T00:58:23.689Z,77.28
2023-03-29T00:59:22.623Z,76.90
2023-03-29T01:00:22.687Z,77.45
2023-03-29T01:01:22.717Z,78.14
2023-03-29T01:02:22.656Z,78.03
2023-03-29T01:03:22.811Z,78.00
2023-03-29T01:04:22.582Z,78.06
2023-03-29T01:05:22.578Z,78.27
2023-03-29T01:06:23.582Z,76.62
2023-03-29T01:07:22.621Z,76.83
2023-03-29T01:08:22.579Z,76.66
2023-03-29T01:09:22.566Z,76.59
2023-03-29T01:10:22.576Z,77.17
2023-03-29T01:11:22.547Z,76.73
2023-03-29T01:12:22.549Z,76.66
2023-03-29T01:13:22.557Z,76.66
2023-03-29T01:14:22.516Z,77.17
2023-03-29T01:15:22.538Z,77.38
2023-03-29T01:16:23.521Z,76.28
2023-03-29T01:17:22.478Z,77.11
2023-03-29T01:18:22.510Z,77.31
2023-03-29T01:19:22.534Z,78.03
2023-03-29T01:20:22.513Z,78.72
2023-03-29T01:21:22.467Z,78.86
2023-03-29T01:22:22.506Z,78.41
2023-03-29T01:23:22.462Z,78.10
2023-03-29T01:24:22.438Z,77.48
2023-03-29T01:25:22.486Z,77.86
2023-03-29T01:26:22.440Z,76.45
2023-03-29T01:27:22.434Z,76.97
2023-03-29T01:28:22.475Z,77.58
2023-03-29T01:29:23.473Z,77.79
2023-03-29T01:30:22.423Z,77.96
2023-03-29T01:31:22.476Z,77.03
2023-03-29T01:32:22.447Z,76.52
2023-03-29T01:33:22.386Z,76.01
2023-03-29T01:34:22.392Z,76.86
2023-03-29T01:35:22.382Z,77.28
2023-03-29T01:36:22.440Z,77.58
2023-03-29T01:37:22.413Z,78.03
2023-03-29T01:38:22.396Z,78.20
2023-03-29T01:39:23.358Z,78.55
2023-03-29T01:40:22.360Z,78.86
2023-03-29T01:41:22.405Z,78.72
2023-03-29T01:42:22.829Z,79.03
2023-03-29T01:43:22.343Z,78.75
2023-03-29T01:44:22.341Z,78.65
2023-03-29T01:45:22.350Z,77.79
2023-03-29T01:46:22.339Z,78.14
2023-03-29T01:47:22.342Z,78.61
2023-03-29T01:48:22.279Z,77.83
2023-03-29T01:49:22.310Z,78.96
2023-03-29T01:50:22.287Z,78.75
2023-03-29T01:51:22.325Z,78.65
2023-03-29T01:52:22.272Z,78.44
2023-03-29T01:53:22.289Z,77.72
2023-03-29T01:54:22.303Z,77.17
2023-03-29T01:55:22.311Z,76.70
2023-03-29T01:56:22.235Z,77.35
2023-03-29T01:57:22.397Z,78.58
2023-03-29T01:58:22.265Z,79.10
2023-03-29T01:59:22.238Z,79.41
2023-03-29T02:00:22.254Z,79.72
2023-03-29T02:01:22.246Z,79.47
2023-03-29T02:02:22.317Z,78.75
2023-03-29T02:03:22.301Z,78.44
2023-03-29T02:04:22.285Z,77.83
2023-03-29T02:05:22.185Z,78.34
2023-03-29T02:06:22.194Z,78.96
2023-03-29T02:07:22.216Z,78.89
2023-03-29T02:08:22.181Z,79.58
2023-03-29T02:09:22.211Z,79.06
2023-03-29T02:10:22.148Z,78.75
2023-03-29T02:11:22.153Z,78.86
2023-03-29T02:12:22.179Z,79.75
2023-03-29T02:13:22.136Z,80.68
2023-03-29T02:14:22.197Z,80.99
2023-03-29T02:15:22.138Z,80.16
2023-03-29T02:16:22.313Z,80.23
2023-03-29T02:17:22.116Z,79.51
2023-03-29T02:18:22.096Z,79.55
2023-03-29T02:19:22.171Z,79.30
2023-03-29T02:20:22.097Z,78.93
2023-03-29T02:21:22.126Z,79.51
2023-03-29T02:22:22.121Z,79.14
2023-03-29T02:23:22.091Z,78.93
2023-03-29T02:24:22.133Z,79.51
2023-03-29T02:25:22.081Z,79.47
2023-03-29T02:26:22.072Z,79.37
2023-03-29T02:27:22.082Z,78.75
2023-03-29T02:28:22.035Z,77.83
2023-03-29T02:29:22.046Z,77.80
2023-03-29T02:30:22.033Z,78.07
2023-03-29T02:31:22.151Z,78.07
2023-03-29T02:32:22.049Z,78.86
2023-03-29T02:33:22.012Z,78.86
2023-03-29T02:34:22.002Z,79.03
2023-03-29T02:35:22.018Z,78.34
2023-03-29T02:36:22.089Z,78.65
2023-03-29T02:37:22.003Z,78.75
2023-03-29T02:38:22.017Z,78.86
2023-03-29T02:39:21.978Z,78.72
2023-03-29T02:40:21.983Z,78.30
2023-03-29T02:41:22.021Z,78.10
2023-03-29T02:42:21.994Z,77.48
2023-03-29T02:43:24.524Z,78.10
2023-03-29T02:44:21.956Z,78.20
2023-03-29T02:45:21.979Z,78.10
2023-03-29T02:46:22.021Z,77.69
2023-03-29T02:47:22.838Z,78.20
2023-03-29T02:48:21.940Z,77.96
2023-03-29T02:49:21.909Z,76.97
2023-03-29T02:50:21.938Z,77.03
2023-03-29T02:51:21.907Z,76.93
2023-03-29T02:52:21.914Z,76.62
2023-03-29T02:53:21.905Z,75.76
2023-03-29T02:54:21.885Z,75.35
2023-03-29T02:55:21.916Z,75.35
2023-03-29T02:56:21.914Z,75.87
2023-03-29T02:57:22.892Z,75.25
2023-03-29T02:58:21.865Z,76.14
2023-03-29T02:59:21.853Z,76.07
2023-03-29T03:00:21.835Z,77.11
2023-03-29T03:01:21.859Z,78.03
2023-03-29T03:02:21.932Z,78.75
2023-03-29T03:03:21.931Z,78.44
2023-03-29T03:04:21.805Z,77.51
2023-03-29T03:05:21.817Z,77.89
2023-03-29T03:06:21.810Z,77.79
2023-03-29T03:07:21.830Z,77.34
2023-03-29T03:08:21.804Z,76.73
2023-03-29T03:09:21.812Z,77.24
2023-03-29T03:10:21.801Z,76.83
2023-03-29T03:11:21.778Z,76.62
2023-03-29T03:12:21.750Z,76.18
2023-03-29T03:13:21.812Z,76.38
2023-03-29T03:14:21.768Z,76.07
2023-03-29T03:15:21.842Z,76.07
2023-03-29T03:16:21.822Z,75.35
2023-03-29T03:17:21.838Z,76.59
2023-03-29T03:18:21.725Z,76.18
2023-03-29T03:19:21.733Z,75.59
2023-03-29T03:20:21.711Z,76.01
2023-03-29T03:21:21.723Z,76.31
2023-03-29T03:22:21.728Z,76.73
2023-03-29T03:23:21.730Z,77.10
2023-03-29T03:24:21.695Z,75.59
2023-03-29T03:25:21.684Z,75.39
2023-03-29T03:26:21.701Z,76.42
2023-03-29T03:27:21.685Z,76.62
2023-03-29T03:28:21.695Z,76.66
2023-03-29T03:29:21.715Z,76.45
2023-03-29T03:30:21.680Z,76.07
2023-03-29T03:31:21.700Z,76.56
2023-03-29T03:32:21.701Z,76.56
2023-03-29T03:33:21.650Z,76.28
2023-03-29T03:34:21.649Z,76.83
2023-03-29T03:35:21.629Z,77.28
2023-03-29T03:36:21.612Z,77.76
2023-03-29T03:37:21.630Z,77.11
2023-03-29T03:38:21.644Z,77.25
2023-03-29T03:39:21.580Z,77.35
2023-03-29T03:40:21.813Z,77.42
2023-03-29T03:41:21.584Z,76.59
2023-03-29T03:42:21.567Z,76.79
2023-03-29T03:43:21.590Z,76.46
2023-03-29T03:44:21.572Z,77.69
2023-03-29T03:45:21.629Z,78.17
2023-03-29T03:46:21.637Z,77.51
2023-03-29T03:47:21.539Z,78.14
2023-03-29T03:48:22.530Z,77.83
2023-03-29T03:49:21.562Z,77.79
2023-03-29T03:50:21.521Z,77.42
2023-03-29T03:51:21.584Z,77.62
2023-03-29T03:52:21.498Z,76.90
2023-03-29T03:53:21.592Z,77.11
2023-03-29T03:54:21.504Z,77.62
2023-03-29T03:55:21.503Z,77.86
2023-03-29T03:56:21.508Z,77.24
2023-03-29T03:57:21.509Z,77.86
2023-03-29T03:58:21.510Z,77.89
2023-03-29T03:59:21.438Z,77.48
2023-03-29T04:00:21.532Z,76.86
2023-03-29T04:01:21.495Z,76.49
2023-03-29T04:02:21.466Z,76.86
2023-03-29T04:03:22.752Z,76.86
2023-03-29T04:04:21.520Z,77.21
2023-03-29T04:05:21.434Z,77.62
2023-03-29T04:06:21.480Z,77.83
2023-03-29T04:07:21.421Z,77.93
2023-03-29T04:08:21.458Z,77.89
2023-03-29T04:09:21.381Z,77.28
2023-03-29T04:10:21.384Z,76.56
2023-03-29T04:11:21.385Z,77.28
2023-03-29T04:12:21.494Z,77.38
2023-03-29T04:13:21.365Z,76.70
2023-03-29T04:14:21.388Z,77.35
2023-03-29T04:15:21.346Z,78.17
2023-03-29T04:16:21.506Z,78.07
2023-03-29T04:17:21.376Z,78.44
2023-03-29T04:18:21.445Z,78.58
2023-03-29T04:19:21.813Z,78.03
2023-03-29T04:20:21.333Z,78.55
2023-03-29T04:21:21.498Z,79.30
2023-03-29T04:22:22.314Z,79.51
2023-03-29T04:23:21.345Z,79.37
2023-03-29T04:24:21.304Z,79.27
2023-03-29T04:25:21.394Z,79.27
2023-03-29T04:26:21.303Z,79.37
2023-03-29T04:27:21.288Z,79.58
2023-03-29T04:28:21.332Z,79.47
2023-03-29T04:29:21.299Z,79.37
2023-03-29T04:30:21.277Z,79.47
2023-03-29T04:31:21.279Z,79.27
2023-03-29T04:32:21.331Z,78.92
2023-03-29T04:33:21.267Z,79.13
2023-03-29T04:34:21.278Z,78.96
2023-03-29T04:35:21.234Z,78.34
2023-03-29T04:36:21.245Z,78.41
2023-03-29T04:37:21.221Z,78.61
2023-03-29T04:38:21.235Z,78.30
2023-03-29T04:39:21.208Z,78.10
2023-03-29T04:40:21.244Z,78.41
2023-03-29T04:41:21.221Z,78.51
2023-03-29T04:42:21.304Z,77.79
2023-03-29T04:43:21.190Z,78.10
2023-03-29T04:44:21.262Z,78.30
2023-03-29T04:45:21.218Z,78.20
2023-03-29T04:46:21.228Z,78.41
2023-03-29T04:47:21.172Z,78.24
2023-03-29T04:48:21.167Z,79.20
2023-03-29T04:49:21.205Z,79.86
2023-03-29T04:50:21.264Z,80.33
2023-03-29T04:51:21.148Z,80.33
2023-03-29T04:52:23.183Z,80.23
2023-03-29T04:53:21.146Z,79.99
2023-03-29T04:54:21.145Z,79.79
2023-03-29T04:55:21.177Z,79.79
2023-03-29T04:56:21.108Z,79.68
2023-03-29T04:57:21.150Z,79.37
2023-03-29T04:58:23.646Z,79.33
2023-03-29T04:59:22.093Z,78.92
2023-03-29T05:00:21.128Z,79.54
2023-03-29T05:01:21.110Z,79.54
2023-03-29T05:02:21.081Z,78.72
2023-03-29T05:03:21.931Z,77.58
2023-03-29T05:04:22.043Z,79.37
2023-03-29T05:05:21.056Z,78.96
2023-03-29T05:06:21.043Z,79.06
2023-03-29T05:07:21.013Z,78.72
2023-03-29T05:08:21.030Z,78.72
2023-03-29T05:09:21.014Z,77.69
2023-03-29T05:10:21.009Z,78.00
2023-03-29T05:11:21.023Z,77.89
2023-03-29T05:12:21.004Z,77.69
2023-03-29T05:13:20.968Z,77.07
2023-03-29T05:14:20.988Z,77.58
2023-03-29T05:15:20.972Z,78.30
2023-03-29T05:16:21.075Z,78.10
2023-03-29T05:17:21.004Z,77.83
2023-03-29T05:18:20.983Z,77.51
2023-03-29T05:19:20.964Z,78.89
2023-03-29T05:20:21.009Z,79.88
2023-03-29T05:21:20.986Z,79.58
2023-03-29T05:22:20.966Z,79.23
2023-03-29T05:23:20.957Z,78.92
2023-03-29T05:24:20.930Z,77.89
2023-03-29T05:25:20.886Z,78.10
2023-03-29T05:26:21.014Z,78.41
2023-03-29T05:27:20.941Z,78.41
2023-03-29T05:28:20.882Z,78.17
2023-03-29T05:29:20.954Z,77.72
2023-03-29T05:30:20.899Z,76.69
2023-03-29T05:31:20.936Z,76.11
2023-03-29T05:32:20.946Z,76.31
2023-03-29T05:33:20.884Z,76.83
2023-03-29T05:34:20.864Z,76.62
2023-03-29T05:35:20.876Z,76.42
2023-03-29T05:36:20.844Z,76.42
2023-03-29T05:37:20.866Z,76.73
2023-03-29T05:38:20.840Z,77.03
2023-03-29T05:39:20.867Z,77.20
2023-03-29T05:40:20.883Z,76.59
2023-03-29T05:41:20.854Z,76.48
2023-03-29T05:42:20.804Z,76.28
2023-03-29T05:43:20.801Z,76.90
2023-03-29T05:44:20.805Z,76.07
2023-03-29T05:45:20.830Z,76.52
2023-03-29T05:46:20.778Z,76.38
2023-03-29T05:47:20.784Z,76.79
2023-03-29T05:48:20.772Z,76.90
2023-03-29T05:49:20.750Z,76.59
2023-03-29T05:50:20.782Z,76.48
2023-03-29T05:51:20.790Z,75.97
2023-03-29T05:52:20.742Z,76.48
2023-03-29T05:53:20.712Z,75.93
2023-03-29T05:54:20.761Z,76.04
2023-03-29T05:55:20.789Z,76.07
2023-03-29T05:56:20.744Z,75.93
2023-03-29T05:57:20.825Z,75.93
2023-03-29T05:58:20.737Z,76.00
2023-03-29T05:59:20.745Z,75.49
2023-03-29T06:00:20.677Z,75.42
2023-03-29T06:01:20.704Z,75.83
2023-03-29T06:02:20.790Z,75.42
2023-03-29T06:03:21.860Z,75.73
2023-03-29T06:04:21.772Z,75.83
2023-03-29T06:05:20.632Z,75.21
2023-03-29T06:06:20.691Z,75.63
2023-03-29T06:07:20.663Z,75.63
2023-03-29T06:08:20.633Z,75.21
2023-03-29T06:09:20.636Z,75.76
2023-03-29T06:10:20.610Z,75.93
2023-03-29T06:11:20.677Z,75.83
2023-03-29T06:12:20.630Z,75.42
2023-03-29T06:13:20.581Z,75.29
2023-03-29T06:14:20.580Z,74.87
2023-03-29T06:15:20.650Z,75.59
2023-03-29T06:16:20.694Z,75.49
2023-03-29T06:17:20.812Z,75.59
2023-03-29T06:18:20.615Z,75.49
2023-03-29T06:19:20.564Z,74.87
2023-03-29T06:20:20.629Z,74.40
2023-03-29T06:21:20.868Z,75.59
2023-03-29T06:22:20.561Z,74.26
2023-03-29T06:23:20.532Z,74.77
2023-03-29T06:24:21.541Z,74.63
2023-03-29T06:25:20.586Z,74.02
2023-03-29T06:26:20.563Z,73.71
2023-03-29T06:27:20.528Z,74.15
2023-03-29T06:28:20.527Z,75.70
2023-03-29T06:29:20.492Z,76.28
2023-03-29T06:30:20.524Z,75.32
2023-03-29T06:31:20.677Z,75.29
2023-03-29T06:32:20.495Z,74.98
2023-03-29T06:33:20.537Z,75.70
2023-03-29T06:34:20.482Z,75.93
2023-03-29T06:35:20.522Z,74.91
2023-03-29T06:36:20.609Z,75.97
2023-03-29T06:37:20.517Z,75.87
2023-03-29T06:38:20.495Z,76.00
2023-03-29T06:39:20.525Z,75.73
2023-03-29T06:40:20.461Z,75.52
2023-03-29T06:41:20.463Z,76.76
2023-03-29T06:42:21.765Z,75.90
2023-03-29T06:43:21.457Z,75.93
2023-03-29T06:44:20.486Z,75.32
2023-03-29T06:45:23.220Z,75.49
2023-03-29T06:46:21.439Z,74.87
2023-03-29T06:47:20.456Z,75.38
2023-03-29T06:48:20.430Z,75.25
2023-03-29T06:49:20.379Z,75.04
2023-03-29T06:50:20.398Z,74.94
2023-03-29T06:51:22.657Z,74.80
2023-03-29T06:52:21.426Z,75.83
2023-03-29T06:53:20.441Z,75.73
2023-03-29T06:54:20.431Z,75.83
2023-03-29T06:55:20.434Z,76.00
2023-03-29T06:56:20.401Z,75.08
2023-03-29T06:57:20.346Z,74.84
2023-03-29T06:58:20.376Z,73.81
2023-03-29T06:59:20.353Z,74.02
2023-03-29T07:00:20.320Z,73.71
2023-03-29T07:01:20.356Z,73.98
2023-03-29T07:02:20.315Z,74.12
2023-03-29T07:03:20.384Z,74.32
2023-03-29T07:04:20.439Z,74.22
2023-03-29T07:05:20.291Z,75.35
2023-03-29T07:06:20.374Z,75.56
2023-03-29T07:07:20.692Z,74.70
2023-03-29T07:08:20.303Z,73.54
2023-03-29T07:09:20.334Z,73.64
2023-03-29T07:10:20.262Z,73.33
2023-03-29T07:11:20.260Z,73.71
2023-03-29T07:12:20.268Z,71.93
2023-03-29T07:13:20.265Z,71.73
2023-03-29T07:14:20.276Z,71.08
2023-03-29T07:15:20.243Z,72.10
2023-03-29T07:16:20.317Z,72.41
2023-03-29T07:17:20.232Z,72.48
2023-03-29T07:18:20.392Z,71.97
2023-03-29T07:19:20.257Z,71.62
2023-03-29T07:20:20.216Z,70.87
2023-03-29T07:21:20.240Z,70.87
2023-03-29T07:22:20.216Z,70.64
2023-03-29T07:23:20.199Z,70.43
2023-03-29T07:24:20.242Z,70.16
2023-03-29T07:25:20.192Z,70.77
2023-03-29T07:26:29.014Z,70.98
2023-03-29T07:27:21.194Z,69.44
2023-03-29T07:28:20.178Z,69.98
2023-03-29T07:29:20.345Z,70.26
2023-03-29T07:30:20.162Z,72.41
2023-03-29T07:31:20.162Z,72.07
2023-03-29T07:32:20.224Z,72.27
2023-03-29T07:33:20.294Z,71.66
2023-03-29T07:34:20.166Z,71.25
2023-03-29T07:35:20.112Z,71.01
2023-03-29T07:36:20.166Z,70.57
2023-03-29T07:37:20.102Z,70.26
2023-03-29T07:38:20.114Z,70.87
2023-03-29T07:39:20.117Z,70.33
2023-03-29T07:40:20.121Z,69.79
2023-03-29T07:41:20.086Z,70.57
2023-03-29T07:42:20.144Z,69.21
2023-03-29T07:43:20.110Z,68.90
2023-03-29T07:44:20.268Z,68.46
2023-03-29T07:45:20.140Z,69.14
2023-03-29T07:46:21.081Z,67.77
2023-03-29T07:47:20.039Z,69.75
2023-03-29T07:48:20.071Z,69.41
2023-03-29T07:49:21.675Z,69.48
2023-03-29T07:50:21.166Z,69.37
2023-03-29T07:51:20.003Z,72.31
2023-03-29T07:52:20.034Z,72.48
2023-03-29T07:53:20.019Z,71.32
2023-03-29T07:54:20.008Z,72.00
2023-03-29T07:55:20.035Z,71.04
2023-03-29T07:56:20.034Z,70.50
2023-03-29T07:57:20.022Z,70.09
2023-03-29T07:58:19.977Z,69.44
2023-03-29T07:59:19.948Z,70.60
2023-03-29T08:00:20.069Z,70.77
2023-03-29T08:01:20.188Z,70.23
2023-03-29T08:02:19.956Z,70.43
2023-03-29T08:03:20.049Z,70.43
2023-03-29T08:04:20.030Z,69.44
2023-03-29T08:05:29.239Z,70.98
2023-03-29T08:06:21.972Z,71.04
2023-03-29T08:07:19.986Z,69.41
2023-03-29T08:08:19.945Z,68.79
2023-03-29T08:09:19.917Z,69.82
2023-03-29T08:10:19.977Z,69.89
2023-03-29T08:11:20.036Z,71.28
2023-03-29T08:12:19.901Z,69.34
2023-03-29T08:13:19.894Z,71.77
2023-03-29T08:14:19.890Z,69.68
2023-03-29T08:15:19.925Z,68.76
2023-03-29T08:16:19.939Z,68.63
2023-03-29T08:17:19.894Z,68.35
2023-03-29T08:18:19.860Z,68.97
2023-03-29T08:19:19.944Z,69.14
2023-03-29T08:20:19.841Z,68.73
2023-03-29T08:21:19.841Z,68.15
2023-03-29T08:22:19.885Z,69.58
2023-03-29T08:23:19.867Z,69.14
2023-03-29T08:24:21.005Z,68.63
2023-03-29T08:25:20.845Z,68.73
2023-03-29T08:26:19.849Z,68.35
2023-03-29T08:27:19.813Z,69.20
2023-03-29T08:28:19.850Z,69.54
2023-03-29T08:29:19.819Z,70.53
2023-03-29T08:30:19.759Z,70.12
2023-03-29T08:31:19.798Z,69.89
2023-03-29T08:32:19.800Z,69.38
2023-03-29T08:33:19.956Z,68.84
2023-03-29T08:34:19.766Z,69.65
2023-03-29T08:35:19.787Z,69.31
2023-03-29T08:36:19.828Z,68.90
2023-03-29T08:37:19.832Z,69.48
2023-03-29T08:38:19.763Z,69.34
2023-03-29T08:39:19.769Z,69.65
2023-03-29T08:40:19.784Z,71.83
2023-03-29T08:41:19.724Z,71.42
2023-03-29T08:42:19.677Z,72.04
2023-03-29T08:43:19.724Z,71.01
2023-03-29T08:44:19.686Z,71.83
2023-03-29T08:45:19.670Z,72.21
2023-03-29T08:46:19.713Z,70.75
2023-03-29T08:47:19.640Z,70.10
2023-03-29T08:48:19.684Z,69.82
2023-03-29T08:49:19.737Z,71.53
2023-03-29T08:50:19.998Z,69.56
2023-03-29T08:51:19.629Z,69.21
2023-03-29T08:52:19.667Z,68.40
2023-03-29T08:53:19.646Z,68.16
2023-03-29T08:54:19.610Z,66.83
2023-03-29T08:55:19.629Z,67.21
2023-03-29T08:56:19.583Z,67.38
2023-03-29T08:57:19.711Z,67.46
2023-03-29T08:58:19.632Z,65.80
2023-03-29T08:59:19.596Z,63.93
2023-03-29T09:00:19.630Z,63.70
2023-03-29T09:01:19.595Z,64.00
2023-03-29T09:02:19.575Z,64.64
2023-03-29T09:03:19.639Z,63.64
2023-03-29T09:04:19.667Z,61.30
2023-03-29T09:05:19.658Z,62.11
2023-03-29T09:06:19.559Z,62.55
2023-03-29T09:07:19.573Z,61.78
2023-03-29T09:08:19.502Z,59.94
2023-03-29T09:09:19.491Z,57.62
2023-03-29T09:10:19.521Z,53.75
2023-03-29T09:11:19.499Z,56.59
2023-03-29T09:12:19.512Z,55.57
2023-03-29T09:13:19.538Z,56.15
2023-03-29T09:14:19.525Z,56.23
2023-03-29T09:15:19.525Z,58.45
2023-03-29T09:16:19.503Z,58.75
2023-03-29T09:17:19.490Z,59.72
2023-03-29T09:18:19.502Z,58.94
2023-03-29T09:19:19.468Z,59.30
2023-03-29T09:20:20.439Z,60.31
2023-03-29T09:21:19.425Z,61.13
2023-03-29T09:22:19.446Z,59.44
2023-03-29T09:23:19.493Z,58.58
2023-03-29T09:24:19.383Z,58.98
2023-03-29T09:25:19.381Z,59.52
2023-03-29T09:26:19.497Z,59.54
2023-03-29T09:27:19.376Z,60.49
2023-03-29T09:28:19.378Z,61.22
2023-03-29T09:29:19.362Z,62.11
2023-03-29T09:30:19.387Z,61.97
2023-03-29T09:31:19.406Z,61.82
2023-03-29T09:32:19.383Z,63.85
2023-03-29T09:33:19.344Z,66.60
2023-03-29T09:34:19.405Z,66.77
2023-03-29T09:35:52.827Z,66.63
2023-03-29T09:36:51.821Z,67.18
2023-03-29T09:37:53.831Z,67.45
2023-03-29T09:38:19.333Z,67.79
2023-03-29T09:39:52.910Z,67.68
2023-03-29T09:40:19.294Z,67.24
2023-03-29T09:41:52.743Z,67.41
2023-03-29T09:42:52.729Z,66.94
2023-03-29T09:43:55.408Z,67.01
2023-03-29T09:44:30.260Z,65.99
2023-03-29T09:45:21.268Z,66.50
2023-03-29T09:46:19.432Z,66.06
2023-03-29T09:47:19.255Z,64.53
2023-03-29T09:48:19.285Z,64.87
2023-03-29T09:49:19.241Z,64.78
2023-03-29T09:50:30.305Z,64.87
2023-03-29T09:51:21.210Z,64.60
2023-03-29T09:52:19.218Z,65.83
2023-03-29T09:53:19.226Z,66.03
2023-03-29T09:54:19.222Z,65.55
2023-03-29T09:55:19.216Z,66.70
2023-03-29T09:56:19.184Z,66.80
2023-03-29T09:57:19.252Z,66.91
2023-03-29T09:58:19.200Z,65.95
2023-03-29T09:59:19.280Z,65.86
2023-03-29T10:00:19.180Z,67.15
2023-03-29T10:01:19.374Z,66.27
2023-03-29T10:02:19.175Z,66.09
2023-03-29T10:03:19.159Z,65.83
2023-03-29T10:04:19.206Z,65.08
2023-03-29T10:05:19.833Z,64.57
2023-03-29T10:06:19.149Z,64.17
2023-03-29T10:07:19.177Z,64.03
2023-03-29T10:08:19.885Z,64.11
2023-03-29T10:09:20.115Z,63.49
2023-03-29T10:10:20.157Z,62.96
2023-03-29T10:11:19.197Z,62.55
2023-03-29T10:12:19.097Z,63.54
2023-03-29T10:13:19.078Z,62.24
2023-03-29T10:14:19.068Z,62.35
2023-03-29T10:15:29.146Z,62.75
2023-03-29T10:16:21.168Z,62.01
2023-03-29T10:17:19.094Z,61.83
2023-03-29T10:18:19.084Z,61.94
2023-03-29T10:19:19.090Z,62.98
2023-03-29T10:20:19.032Z,62.48
2023-03-29T10:21:19.054Z,63.53
2023-03-29T10:22:19.057Z,63.76
2023-03-29T10:23:19.061Z,63.76
2023-03-29T10:24:19.012Z,63.93
2023-03-29T10:25:19.018Z,63.90
2023-03-29T10:26:19.015Z,63.09
2023-03-29T10:27:19.019Z,63.70
2023-03-29T10:28:18.965Z,62.14
2023-03-29T10:29:18.985Z,62.78
2023-03-29T10:30:18.985Z,63.04
2023-03-29T10:31:18.991Z,64.87
2023-03-29T10:32:18.968Z,64.47
2023-03-29T10:33:18.956Z,64.03
2023-03-29T10:34:18.999Z,63.59
2023-03-29T10:35:18.935Z,63.06
2023-03-29T10:36:18.966Z,62.93
2023-03-29T10:37:18.959Z,62.11
2023-03-29T10:38:18.931Z,62.32
2023-03-29T10:39:18.968Z,61.91
2023-03-29T10:40:18.953Z,63.36
2023-03-29T10:41:18.912Z,62.37
2023-03-29T10:42:18.944Z,64.57
2023-03-29T10:43:18.937Z,64.81
2023-03-29T10:44:18.911Z,63.90
2023-03-29T10:45:18.911Z,63.67
2023-03-29T10:46:18.924Z,62.93
2023-03-29T10:47:18.914Z,63.36
2023-03-29T10:48:18.896Z,63.20
2023-03-29T10:49:18.870Z,62.35
2023-03-29T10:50:18.902Z,64.92
2023-03-29T10:51:18.868Z,63.67
2023-03-29T10:52:18.862Z,63.02
2023-03-29T10:53:18.833Z,64.64
2023-03-29T10:54:18.852Z,65.02
2023-03-29T10:55:18.835Z,63.84
2023-03-29T10:56:18.841Z,62.98
2023-03-29T10:57:20.971Z,63.77
2023-03-29T10:58:18.842Z,64.28
2023-03-29T10:59:18.856Z,63.64
2023-03-29T11:00:18.948Z,62.70
2023-03-29T11:01:18.904Z,63.54
2023-03-29T11:02:18.835Z,62.93
2023-03-29T11:03:21.014Z,63.07
2023-03-29T11:04:19.741Z,62.29
2023-03-29T11:05:18.779Z,61.68
2023-03-29T11:06:18.759Z,62.18
2023-03-29T11:07:18.745Z,61.85
2023-03-29T11:08:18.731Z,61.85
2023-03-29T11:09:19.749Z,61.82
2023-03-29T11:10:18.749Z,60.71
2023-03-29T11:11:18.742Z,62.13
2023-03-29T11:12:18.729Z,61.62
2023-03-29T11:13:18.736Z,61.18
2023-03-29T11:14:18.729Z,60.42
2023-03-29T11:15:18.689Z,59.58
2023-03-29T11:16:18.797Z,58.69
2023-03-29T11:17:18.685Z,60.85
2023-03-29T11:18:18.702Z,61.46
2023-03-29T11:19:18.679Z,60.82
2023-03-29T11:20:18.667Z,59.23
2023-03-29T11:21:18.713Z,60.42
2023-03-29T11:22:18.652Z,59.99
2023-03-29T11:23:19.435Z,59.12
2023-03-29T11:24:18.666Z,61.69
2023-03-29T11:25:18.681Z,61.87
2023-03-29T11:26:18.629Z,59.63
2023-03-29T11:27:18.606Z,59.66
2023-03-29T11:28:18.642Z,60.44
2023-03-29T11:29:18.796Z,59.69
2023-03-29T11:30:18.641Z,62.02
2023-03-29T11:31:18.685Z,61.82
2023-03-29T11:32:18.582Z,61.62
2023-03-29T11:33:18.565Z,61.69
2023-03-29T11:34:18.563Z,61.52
2023-03-29T11:35:18.615Z,62.16
2023-03-29T11:36:19.439Z,63.37
2023-03-29T11:37:18.535Z,62.16
2023-03-29T11:38:18.619Z,63.55
2023-03-29T11:39:18.582Z,62.74
2023-03-29T11:40:18.525Z,61.72
2023-03-29T11:41:18.550Z,62.60
2023-03-29T11:42:18.526Z,61.87
2023-03-29T11:43:18.514Z,59.42
2023-03-29T11:44:18.527Z,57.54
2023-03-29T11:45:18.601Z,58.83
2023-03-29T11:46:19.957Z,57.34
2023-03-29T11:47:18.585Z,57.24
2023-03-29T11:48:18.480Z,57.72
2023-03-29T11:49:18.566Z,54.25
2023-03-29T11:50:18.480Z,53.88
2023-03-29T11:51:18.517Z,54.38
2023-03-29T11:52:18.480Z,54.68
2023-03-29T11:53:18.444Z,53.78
2023-03-29T11:54:18.448Z,53.42
2023-03-29T11:55:18.494Z,53.02
2023-03-29T11:56:18.434Z,53.00
2023-03-29T11:57:18.451Z,54.18
2023-03-29T11:58:18.412Z,53.98
2023-03-29T11:59:18.451Z,53.14
2023-03-29T12:00:18.430Z,52.42
2023-03-29T12:01:18.419Z,53.52
2023-03-29T12:02:18.421Z,54.10
2023-03-29T12:03:18.437Z,54.61
2023-03-29T12:04:18.386Z,55.94
2023-03-29T12:05:18.398Z,56.27
2023-03-29T12:06:18.364Z,57.31
2023-03-29T12:07:18.448Z,58.36
2023-03-29T12:08:18.415Z,57.14
2023-03-29T12:09:18.366Z,57.95
2023-03-29T12:10:18.330Z,58.25
2023-03-29T12:11:18.454Z,58.92
2023-03-29T12:12:19.264Z,58.51
2023-03-29T12:13:18.715Z,59.12
2023-03-29T12:14:18.304Z,59.29
2023-03-29T12:15:18.304Z,59.42
2023-03-29T12:16:18.310Z,59.09
2023-03-29T12:17:18.324Z,57.85
2023-03-29T12:18:18.907Z,57.92
2023-03-29T12:19:18.291Z,57.82
2023-03-29T12:20:18.293Z,56.78
2023-03-29T12:21:18.269Z,56.27
2023-03-29T12:22:18.232Z,57.52
2023-03-29T12:23:18.246Z,58.07
2023-03-29T12:24:18.286Z,57.95
2023-03-29T12:25:19.291Z,57.92
2023-03-29T12:26:19.212Z,57.54
2023-03-29T12:27:18.281Z,58.07
2023-03-29T12:28:18.221Z,58.99
2023-03-29T12:29:18.210Z,59.06
2023-03-29T12:30:18.187Z,59.16
2023-03-29T12:31:18.209Z,59.36
2023-03-29T12:32:18.220Z,58.73
2023-03-29T12:33:18.283Z,58.45
2023-03-29T12:34:18.174Z,59.19
2023-03-29T12:35:18.251Z,57.95
2023-03-29T12:36:18.234Z,58.70
2023-03-29T12:37:18.212Z,57.76
2023-03-29T12:38:18.160Z,57.01
2023-03-29T12:39:18.147Z,56.25
2023-03-29T12:40:18.208Z,57.39
2023-03-29T12:41:18.122Z,56.07
2023-03-29T12:42:18.182Z,56.61
2023-03-29T12:43:18.143Z,57.65
2023-03-29T12:44:18.106Z,58.61
2023-03-29T12:45:18.131Z,58.78
2023-03-29T12:46:18.213Z,58.48
2023-03-29T12:47:18.091Z,58.73
2023-03-29T12:48:18.112Z,57.92
2023-03-29T12:49:20.479Z,57.82
2023-03-29T12:50:19.117Z,59.27
2023-03-29T12:51:18.070Z,57.26
2023-03-29T12:52:18.055Z,55.77